sensor_id;sensor_type;location;lat;lon;timestamp;P1;durP1;ratioP1;P2;durP2;ratioP2
21270;SDS011;10795;50.796;3.860;2022-11-06T00:01:57;6.47;;;2.30;;
21270;SDS011;10795;50.796;3.860;2022-11-06T00:04:23;10.65;;;2.67;;
21270;SDS011;10795;50.796;3.860;2022-11-06T00:06:49;9.63;;;2.85;;
21270;SDS011;10795;50.796;3.860;2022-11-06T00:09:19;8.35;;;2.60;;
21270;SDS011;10795;50.796;3.860;2022-11-06T00:11:46;8.93;;;3.15;;
21270;SDS011;10795;50.796;3.860;2022-11-06T00:14:13;12.00;;;2.92;;
21270;SDS011;10795;50.796;3.860;2022-11-06T00:16:39;9.73;;;2.83;;
21270;SDS011;10795;50.796;3.860;2022-11-06T00:19:06;7.25;;;3.00;;
21270;SDS011;10795;50.796;3.860;2022-11-06T00:21:34;9.65;;;3.03;;
21270;SDS011;10795;50.796;3.860;2022-11-06T00:24:01;10.15;;;2.67;;
21270;SDS011;10795;50.796;3.860;2022-11-06T00:26:28;9.20;;;3.10;;
21270;SDS011;10795;50.796;3.860;2022-11-06T00:28:55;10.02;;;2.80;;
21270;SDS011;10795;50.796;3.860;2022-11-06T00:31:29;12.00;;;2.97;;
21270;SDS011;10795;50.796;3.860;2022-11-06T00:33:57;11.73;;;2.97;;
21270;SDS011;10795;50.796;3.860;2022-11-06T00:36:24;7.93;;;2.95;;
21270;SDS011;10795;50.796;3.860;2022-11-06T00:38:51;7.18;;;2.75;;
21270;SDS011;10795;50.796;3.860;2022-11-06T00:41:19;7.88;;;2.92;;
21270;SDS011;10795;50.796;3.860;2022-11-06T00:43:49;10.98;;;2.45;;
21270;SDS011;10795;50.796;3.860;2022-11-06T00:46:17;7.68;;;2.35;;
21270;SDS011;10795;50.796;3.860;2022-11-06T00:48:44;6.97;;;2.33;;
21270;SDS011;10795;50.796;3.860;2022-11-06T00:51:11;11.68;;;2.53;;
21270;SDS011;10795;50.796;3.860;2022-11-06T00:53:39;6.85;;;2.13;;
21270;SDS011;10795;50.796;3.860;2022-11-06T00:56:13;7.63;;;2.60;;
21270;SDS011;10795;50.796;3.860;2022-11-06T00:58:40;8.05;;;2.45;;
21270;SDS011;10795;50.796;3.860;2022-11-06T01:01:14;7.22;;;2.47;;
21270;SDS011;10795;50.796;3.860;2022-11-06T01:03:41;6.97;;;2.80;;
21270;SDS011;10795;50.796;3.860;2022-11-06T01:06:13;10.77;;;2.80;;
21270;SDS011;10795;50.796;3.860;2022-11-06T01:08:41;8.02;;;2.50;;
21270;SDS011;10795;50.796;3.860;2022-11-06T01:11:08;8.38;;;2.40;;
21270;SDS011;10795;50.796;3.860;2022-11-06T01:13:39;8.63;;;2.50;;
21270;SDS011;10795;50.796;3.860;2022-11-06T01:16:09;11.10;;;2.60;;
21270;SDS011;10795;50.796;3.860;2022-11-06T01:18:37;6.75;;;2.35;;
21270;SDS011;10795;50.796;3.860;2022-11-06T01:21:05;5.90;;;2.47;;
21270;SDS011;10795;50.796;3.860;2022-11-06T01:23:32;7.55;;;2.17;;
21270;SDS011;10795;50.796;3.860;2022-11-06T01:25:58;10.60;;;2.35;;
21270;SDS011;10795;50.796;3.860;2022-11-06T01:28:25;9.23;;;2.47;;
21270;SDS011;10795;50.796;3.860;2022-11-06T01:30:51;7.63;;;2.50;;
21270;SDS011;10795;50.796;3.860;2022-11-06T01:33:17;10.75;;;2.80;;
21270;SDS011;10795;50.796;3.860;2022-11-06T01:35:44;7.25;;;2.17;;
21270;SDS011;10795;50.796;3.860;2022-11-06T01:38:10;11.07;;;3.13;;
21270;SDS011;10795;50.796;3.860;2022-11-06T01:40:43;9.23;;;2.58;;
21270;SDS011;10795;50.796;3.860;2022-11-06T01:43:12;8.02;;;2.13;;
21270;SDS011;10795;50.796;3.860;2022-11-06T01:45:44;10.02;;;2.17;;
21270;SDS011;10795;50.796;3.860;2022-11-06T01:48:18;7.07;;;2.50;;
21270;SDS011;10795;50.796;3.860;2022-11-06T01:50:48;12.73;;;2.60;;
21270;SDS011;10795;50.796;3.860;2022-11-06T01:53:17;8.15;;;2.60;;
21270;SDS011;10795;50.796;3.860;2022-11-06T01:55:44;8.15;;;3.17;;
21270;SDS011;10795;50.796;3.860;2022-11-06T01:58:14;10.88;;;2.35;;
21270;SDS011;10795;50.796;3.860;2022-11-06T02:00:42;6.15;;;2.17;;
21270;SDS011;10795;50.796;3.860;2022-11-06T02:03:08;10.48;;;2.92;;
21270;SDS011;10795;50.796;3.860;2022-11-06T02:05:37;6.57;;;2.30;;
21270;SDS011;10795;50.796;3.860;2022-11-06T02:08:03;6.43;;;2.28;;
21270;SDS011;10795;50.796;3.860;2022-11-06T02:10:30;10.15;;;2.20;;
21270;SDS011;10795;50.796;3.860;2022-11-06T02:13:03;5.78;;;2.03;;
21270;SDS011;10795;50.796;3.860;2022-11-06T02:21:19;8.75;;;2.15;;
21270;SDS011;10795;50.796;3.860;2022-11-06T02:25:02;11.52;;;2.40;;
21270;SDS011;10795;50.796;3.860;2022-11-06T02:27:12;8.80;;;2.67;;
21270;SDS011;10795;50.796;3.860;2022-11-06T02:30:16;8.35;;;2.45;;
21270;SDS011;10795;50.796;3.860;2022-11-06T02:37:48;5.93;;;2.30;;
21270;SDS011;10795;50.796;3.860;2022-11-06T02:40:18;7.22;;;2.40;;
21270;SDS011;10795;50.796;3.860;2022-11-06T02:42:47;7.07;;;2.13;;
21270;SDS011;10795;50.796;3.860;2022-11-06T02:45:17;11.98;;;2.60;;
21270;SDS011;10795;50.796;3.860;2022-11-06T02:47:45;8.77;;;2.47;;
21270;SDS011;10795;50.796;3.860;2022-11-06T02:50:16;7.47;;;2.25;;
21270;SDS011;10795;50.796;3.860;2022-11-06T02:52:57;2.90;;;1.70;;
21270;SDS011;10795;50.796;3.860;2022-11-06T02:55:29;6.03;;;2.38;;
21270;SDS011;10795;50.796;3.860;2022-11-06T02:58:02;7.70;;;2.25;;
21270;SDS011;10795;50.796;3.860;2022-11-06T03:00:32;11.20;;;2.58;;
21270;SDS011;10795;50.796;3.860;2022-11-06T03:03:00;4.93;;;2.10;;
21270;SDS011;10795;50.796;3.860;2022-11-06T03:05:37;6.55;;;2.30;;
21270;SDS011;10795;50.796;3.860;2022-11-06T03:08:26;7.90;;;2.10;;
21270;SDS011;10795;50.796;3.860;2022-11-06T03:11:08;6.13;;;2.00;;
21270;SDS011;10795;50.796;3.860;2022-11-06T03:14:41;2.75;;;1.80;;
21270;SDS011;10795;50.796;3.860;2022-11-06T03:27:35;5.40;;;1.88;;
21270;SDS011;10795;50.796;3.860;2022-11-06T03:30:08;5.38;;;2.28;;
21270;SDS011;10795;50.796;3.860;2022-11-06T03:32:45;10.07;;;2.33;;
21270;SDS011;10795;50.796;3.860;2022-11-06T03:35:19;4.55;;;1.77;;
21270;SDS011;10795;50.796;3.860;2022-11-06T03:38:11;8.40;;;2.20;;
21270;SDS011;10795;50.796;3.860;2022-11-06T03:40:43;6.50;;;2.40;;
21270;SDS011;10795;50.796;3.860;2022-11-06T03:43:14;6.45;;;2.10;;
21270;SDS011;10795;50.796;3.860;2022-11-06T03:45:42;8.32;;;2.17;;
21270;SDS011;10795;50.796;3.860;2022-11-06T03:50:44;5.88;;;1.92;;
21270;SDS011;10795;50.796;3.860;2022-11-06T03:53:17;5.05;;;2.20;;
21270;SDS011;10795;50.796;3.860;2022-11-06T03:55:49;10.10;;;2.35;;
21270;SDS011;10795;50.796;3.860;2022-11-06T03:58:26;4.90;;;2.45;;
21270;SDS011;10795;50.796;3.860;2022-11-06T04:00:57;3.88;;;2.25;;
21270;SDS011;10795;50.796;3.860;2022-11-06T04:03:27;11.27;;;2.58;;
21270;SDS011;10795;50.796;3.860;2022-11-06T04:05:59;6.63;;;2.10;;
21270;SDS011;10795;50.796;3.860;2022-11-06T04:08:30;8.95;;;2.58;;
21270;SDS011;10795;50.796;3.860;2022-11-06T04:11:17;4.78;;;2.10;;
21270;SDS011;10795;50.796;3.860;2022-11-06T04:14:05;7.30;;;2.23;;
21270;SDS011;10795;50.796;3.860;2022-11-06T04:16:40;6.45;;;2.17;;
21270;SDS011;10795;50.796;3.860;2022-11-06T04:19:16;6.20;;;2.25;;
21270;SDS011;10795;50.796;3.860;2022-11-06T04:30:26;8.30;;;2.10;;
21270;SDS011;10795;50.796;3.860;2022-11-06T04:35:42;10.82;;;2.42;;
21270;SDS011;10795;50.796;3.860;2022-11-06T04:38:22;10.95;;;2.25;;
21270;SDS011;10795;50.796;3.860;2022-11-06T04:44:00;6.45;;;2.88;;
21270;SDS011;10795;50.796;3.860;2022-11-06T04:47:01;7.90;;;2.20;;
21270;SDS011;10795;50.796;3.860;2022-11-06T04:49:30;8.35;;;2.33;;
21270;SDS011;10795;50.796;3.860;2022-11-06T04:51:59;6.03;;;1.77;;
21270;SDS011;10795;50.796;3.860;2022-11-06T04:54:27;8.40;;;2.08;;
21270;SDS011;10795;50.796;3.860;2022-11-06T04:57:02;6.95;;;2.45;;
21270;SDS011;10795;50.796;3.860;2022-11-06T04:59:29;7.03;;;2.05;;
21270;SDS011;10795;50.796;3.860;2022-11-06T05:01:59;11.98;;;2.53;;
21270;SDS011;10795;50.796;3.860;2022-11-06T05:04:25;11.60;;;2.92;;
21270;SDS011;10795;50.796;3.860;2022-11-06T05:06:50;9.80;;;2.60;;
21270;SDS011;10795;50.796;3.860;2022-11-06T05:09:16;8.98;;;2.60;;
21270;SDS011;10795;50.796;3.860;2022-11-06T05:11:42;11.95;;;2.65;;
21270;SDS011;10795;50.796;3.860;2022-11-06T05:14:08;4.90;;;2.00;;
21270;SDS011;10795;50.796;3.860;2022-11-06T05:16:33;7.10;;;2.50;;
21270;SDS011;10795;50.796;3.860;2022-11-06T05:18:59;5.95;;;2.53;;
21270;SDS011;10795;50.796;3.860;2022-11-06T05:21:25;9.48;;;2.40;;
21270;SDS011;10795;50.796;3.860;2022-11-06T05:24:09;10.05;;;2.70;;
21270;SDS011;10795;50.796;3.860;2022-11-06T05:26:35;8.05;;;2.30;;
21270;SDS011;10795;50.796;3.860;2022-11-06T05:29:01;4.63;;;1.73;;
21270;SDS011;10795;50.796;3.860;2022-11-06T05:31:26;7.63;;;2.42;;
21270;SDS011;10795;50.796;3.860;2022-11-06T05:33:52;11.52;;;2.53;;
21270;SDS011;10795;50.796;3.860;2022-11-06T05:36:18;5.93;;;2.38;;
21270;SDS011;10795;50.796;3.860;2022-11-06T05:38:44;6.75;;;2.28;;
21270;SDS011;10795;50.796;3.860;2022-11-06T05:41:09;8.30;;;2.22;;
21270;SDS011;10795;50.796;3.860;2022-11-06T05:43:35;5.43;;;2.03;;
21270;SDS011;10795;50.796;3.860;2022-11-06T05:46:01;6.95;;;2.40;;
21270;SDS011;10795;50.796;3.860;2022-11-06T05:48:27;7.82;;;1.92;;
21270;SDS011;10795;50.796;3.860;2022-11-06T05:50:58;10.15;;;2.13;;
21270;SDS011;10795;50.796;3.860;2022-11-06T05:53:28;7.60;;;2.25;;
21270;SDS011;10795;50.796;3.860;2022-11-06T05:55:58;5.65;;;1.95;;
21270;SDS011;10795;50.796;3.860;2022-11-06T05:58:24;10.15;;;2.47;;
21270;SDS011;10795;50.796;3.860;2022-11-06T06:00:51;6.97;;;2.45;;
21270;SDS011;10795;50.796;3.860;2022-11-06T06:03:18;9.32;;;2.30;;
21270;SDS011;10795;50.796;3.860;2022-11-06T06:05:45;6.07;;;2.50;;
21270;SDS011;10795;50.796;3.860;2022-11-06T06:08:11;10.35;;;2.33;;
21270;SDS011;10795;50.796;3.860;2022-11-06T06:10:41;9.00;;;1.85;;
21270;SDS011;10795;50.796;3.860;2022-11-06T06:13:07;8.30;;;2.28;;
21270;SDS011;10795;50.796;3.860;2022-11-06T06:15:33;5.30;;;1.60;;
21270;SDS011;10795;50.796;3.860;2022-11-06T06:17:59;7.45;;;1.92;;
21270;SDS011;10795;50.796;3.860;2022-11-06T06:20:25;8.73;;;2.10;;
21270;SDS011;10795;50.796;3.860;2022-11-06T06:22:57;6.45;;;2.00;;
21270;SDS011;10795;50.796;3.860;2022-11-06T06:25:23;5.63;;;2.15;;
21270;SDS011;10795;50.796;3.860;2022-11-06T06:27:50;6.60;;;2.40;;
21270;SDS011;10795;50.796;3.860;2022-11-06T06:30:16;8.07;;;2.10;;
21270;SDS011;10795;50.796;3.860;2022-11-06T06:32:42;6.85;;;2.40;;
21270;SDS011;10795;50.796;3.860;2022-11-06T06:35:08;7.55;;;2.00;;
21270;SDS011;10795;50.796;3.860;2022-11-06T06:37:35;4.63;;;2.10;;
21270;SDS011;10795;50.796;3.860;2022-11-06T06:40:00;7.50;;;2.33;;
21270;SDS011;10795;50.796;3.860;2022-11-06T06:42:29;6.18;;;2.10;;
21270;SDS011;10795;50.796;3.860;2022-11-06T06:44:55;10.13;;;2.20;;
21270;SDS011;10795;50.796;3.860;2022-11-06T06:47:21;8.40;;;1.83;;
21270;SDS011;10795;50.796;3.860;2022-11-06T06:49:47;8.13;;;2.38;;
21270;SDS011;10795;50.796;3.860;2022-11-06T06:52:13;8.70;;;1.90;;
21270;SDS011;10795;50.796;3.860;2022-11-06T06:54:39;7.80;;;2.08;;
21270;SDS011;10795;50.796;3.860;2022-11-06T06:57:07;7.03;;;1.90;;
21270;SDS011;10795;50.796;3.860;2022-11-06T06:59:33;8.23;;;2.50;;
21270;SDS011;10795;50.796;3.860;2022-11-06T07:01:59;5.85;;;2.00;;
21270;SDS011;10795;50.796;3.860;2022-11-06T07:04:24;8.63;;;1.83;;
21270;SDS011;10795;50.796;3.860;2022-11-06T07:06:53;7.78;;;2.05;;
21270;SDS011;10795;50.796;3.860;2022-11-06T07:09:19;6.10;;;1.63;;
21270;SDS011;10795;50.796;3.860;2022-11-06T07:11:48;8.90;;;2.35;;
21270;SDS011;10795;50.796;3.860;2022-11-06T07:14:15;4.45;;;1.70;;
21270;SDS011;10795;50.796;3.860;2022-11-06T07:16:40;8.30;;;2.00;;
21270;SDS011;10795;50.796;3.860;2022-11-06T07:19:06;7.10;;;2.00;;
21270;SDS011;10795;50.796;3.860;2022-11-06T07:21:32;5.75;;;2.00;;
21270;SDS011;10795;50.796;3.860;2022-11-06T07:23:57;5.28;;;2.25;;
21270;SDS011;10795;50.796;3.860;2022-11-06T07:26:23;7.53;;;1.95;;
21270;SDS011;10795;50.796;3.860;2022-11-06T07:28:49;8.40;;;2.13;;
21270;SDS011;10795;50.796;3.860;2022-11-06T07:31:14;7.85;;;2.38;;
21270;SDS011;10795;50.796;3.860;2022-11-06T07:33:40;5.35;;;2.25;;
21270;SDS011;10795;50.796;3.860;2022-11-06T07:36:07;4.05;;;1.80;;
21270;SDS011;10795;50.796;3.860;2022-11-06T07:38:35;6.88;;;2.10;;
21270;SDS011;10795;50.796;3.860;2022-11-06T07:41:03;5.68;;;2.15;;
21270;SDS011;10795;50.796;3.860;2022-11-06T07:43:30;7.68;;;1.83;;
21270;SDS011;10795;50.796;3.860;2022-11-06T07:46:04;6.38;;;1.52;;
21270;SDS011;10795;50.796;3.860;2022-11-06T07:48:31;10.43;;;2.38;;
21270;SDS011;10795;50.796;3.860;2022-11-06T07:50:57;5.15;;;1.90;;
21270;SDS011;10795;50.796;3.860;2022-11-06T07:53:26;4.75;;;1.70;;
21270;SDS011;10795;50.796;3.860;2022-11-06T07:55:52;8.32;;;1.80;;
21270;SDS011;10795;50.796;3.860;2022-11-06T07:58:19;6.95;;;1.50;;
21270;SDS011;10795;50.796;3.860;2022-11-06T08:00:49;5.10;;;1.70;;
21270;SDS011;10795;50.796;3.860;2022-11-06T08:03:16;4.05;;;1.77;;
21270;SDS011;10795;50.796;3.860;2022-11-06T08:05:42;8.30;;;1.50;;
21270;SDS011;10795;50.796;3.860;2022-11-06T08:08:08;5.57;;;1.80;;
21270;SDS011;10795;50.796;3.860;2022-11-06T08:10:34;8.15;;;1.80;;
21270;SDS011;10795;50.796;3.860;2022-11-06T08:13:07;5.65;;;1.55;;
21270;SDS011;10795;50.796;3.860;2022-11-06T08:15:33;4.95;;;1.85;;
21270;SDS011;10795;50.796;3.860;2022-11-06T08:18:00;5.78;;;1.88;;
21270;SDS011;10795;50.796;3.860;2022-11-06T08:20:26;7.97;;;2.22;;
21270;SDS011;10795;50.796;3.860;2022-11-06T08:22:56;2.63;;;1.35;;
21270;SDS011;10795;50.796;3.860;2022-11-06T08:25:23;5.97;;;1.67;;
21270;SDS011;10795;50.796;3.860;2022-11-06T08:27:48;6.55;;;1.60;;
21270;SDS011;10795;50.796;3.860;2022-11-06T08:36:01;5.70;;;1.65;;
21270;SDS011;10795;50.796;3.860;2022-11-06T08:38:28;9.60;;;1.77;;
21270;SDS011;10795;50.796;3.860;2022-11-06T08:40:54;4.47;;;1.67;;
21270;SDS011;10795;50.796;3.860;2022-11-06T08:43:20;6.55;;;2.28;;
21270;SDS011;10795;50.796;3.860;2022-11-06T08:45:48;4.38;;;1.90;;
21270;SDS011;10795;50.796;3.860;2022-11-06T08:48:14;5.80;;;1.80;;
21270;SDS011;10795;50.796;3.860;2022-11-06T08:50:39;5.95;;;1.85;;
21270;SDS011;10795;50.796;3.860;2022-11-06T08:53:06;4.20;;;1.80;;
21270;SDS011;10795;50.796;3.860;2022-11-06T08:55:32;7.38;;;2.05;;
21270;SDS011;10795;50.796;3.860;2022-11-06T08:58:00;7.32;;;1.65;;
21270;SDS011;10795;50.796;3.860;2022-11-06T09:00:27;4.53;;;1.73;;
21270;SDS011;10795;50.796;3.860;2022-11-06T09:03:02;10.02;;;1.90;;
21270;SDS011;10795;50.796;3.860;2022-11-06T09:05:30;6.93;;;1.52;;
21270;SDS011;10795;50.796;3.860;2022-11-06T09:07:57;9.68;;;1.92;;
21270;SDS011;10795;50.796;3.860;2022-11-06T09:10:23;5.32;;;1.58;;
21270;SDS011;10795;50.796;3.860;2022-11-06T09:12:49;6.15;;;1.60;;
21270;SDS011;10795;50.796;3.860;2022-11-06T09:15:15;7.30;;;1.92;;
21270;SDS011;10795;50.796;3.860;2022-11-06T09:17:45;7.53;;;2.20;;
21270;SDS011;10795;50.796;3.860;2022-11-06T09:20:13;9.20;;;1.73;;
21270;SDS011;10795;50.796;3.860;2022-11-06T09:22:39;5.38;;;1.88;;
21270;SDS011;10795;50.796;3.860;2022-11-06T09:25:06;4.55;;;1.58;;
21270;SDS011;10795;50.796;3.860;2022-11-06T09:27:39;6.97;;;1.75;;
21270;SDS011;10795;50.796;3.860;2022-11-06T09:30:09;9.85;;;2.10;;
21270;SDS011;10795;50.796;3.860;2022-11-06T09:32:37;5.20;;;1.60;;
21270;SDS011;10795;50.796;3.860;2022-11-06T09:35:03;8.32;;;2.20;;
21270;SDS011;10795;50.796;3.860;2022-11-06T09:37:30;7.72;;;1.70;;
21270;SDS011;10795;50.796;3.860;2022-11-06T09:39:55;9.65;;;1.90;;
21270;SDS011;10795;50.796;3.860;2022-11-06T09:45:15;10.23;;;2.08;;
21270;SDS011;10795;50.796;3.860;2022-11-06T09:47:49;10.13;;;2.00;;
21270;SDS011;10795;50.796;3.860;2022-11-06T09:50:36;5.13;;;1.80;;
21270;SDS011;10795;50.796;3.860;2022-11-06T09:58:35;7.35;;;1.90;;
21270;SDS011;10795;50.796;3.860;2022-11-06T10:01:15;6.63;;;1.45;;
21270;SDS011;10795;50.796;3.860;2022-11-06T10:03:56;7.75;;;2.13;;
21270;SDS011;10795;50.796;3.860;2022-11-06T10:06:24;5.35;;;1.42;;
21270;SDS011;10795;50.796;3.860;2022-11-06T10:08:53;9.27;;;1.77;;
21270;SDS011;10795;50.796;3.860;2022-11-06T10:11:38;3.50;;;1.50;;
21270;SDS011;10795;50.796;3.860;2022-11-06T10:14:45;4.57;;;1.50;;
21270;SDS011;10795;50.796;3.860;2022-11-06T10:17:20;6.10;;;1.95;;
21270;SDS011;10795;50.796;3.860;2022-11-06T10:19:55;8.85;;;1.80;;
21270;SDS011;10795;50.796;3.860;2022-11-06T10:22:25;3.70;;;1.38;;
21270;SDS011;10795;50.796;3.860;2022-11-06T10:25:18;7.13;;;1.75;;
21270;SDS011;10795;50.796;3.860;2022-11-06T10:36:13;6.00;;;1.60;;
21270;SDS011;10795;50.796;3.860;2022-11-06T10:38:43;5.22;;;1.60;;
21270;SDS011;10795;50.796;3.860;2022-11-06T10:41:16;8.52;;;1.80;;
21270;SDS011;10795;50.796;3.860;2022-11-06T10:43:50;7.97;;;1.85;;
21270;SDS011;10795;50.796;3.860;2022-11-06T10:46:34;5.97;;;1.50;;
21270;SDS011;10795;50.796;3.860;2022-11-06T10:49:01;5.40;;;1.40;;
21270;SDS011;10795;50.796;3.860;2022-11-06T10:51:56;4.55;;;1.58;;
21270;SDS011;10795;50.796;3.860;2022-11-06T10:54:41;4.55;;;1.50;;
21270;SDS011;10795;50.796;3.860;2022-11-06T11:00:01;6.50;;;1.70;;
21270;SDS011;10795;50.796;3.860;2022-11-06T11:02:29;4.38;;;1.60;;
21270;SDS011;10795;50.796;3.860;2022-11-06T11:05:01;8.77;;;2.03;;
21270;SDS011;10795;50.796;3.860;2022-11-06T11:07:30;6.07;;;1.65;;
21270;SDS011;10795;50.796;3.860;2022-11-06T11:09:57;4.72;;;1.60;;
21270;SDS011;10795;50.796;3.860;2022-11-06T11:12:27;6.00;;;2.20;;
21270;SDS011;10795;50.796;3.860;2022-11-06T11:17:36;6.20;;;2.45;;
21270;SDS011;10795;50.796;3.860;2022-11-06T11:20:01;5.57;;;2.08;;
21270;SDS011;10795;50.796;3.860;2022-11-06T11:22:28;8.00;;;1.95;;
21270;SDS011;10795;50.796;3.860;2022-11-06T11:25:01;4.22;;;1.63;;
21270;SDS011;10795;50.796;3.860;2022-11-06T11:27:43;5.13;;;1.73;;
21270;SDS011;10795;50.796;3.860;2022-11-06T11:30:18;6.82;;;2.40;;
21270;SDS011;10795;50.796;3.860;2022-11-06T11:32:47;8.07;;;2.00;;
21270;SDS011;10795;50.796;3.860;2022-11-06T11:35:15;7.80;;;1.92;;
21270;SDS011;10795;50.796;3.860;2022-11-06T11:37:50;3.65;;;1.70;;
21270;SDS011;10795;50.796;3.860;2022-11-06T11:46:29;7.13;;;2.13;;
21270;SDS011;10795;50.796;3.860;2022-11-06T11:51:23;5.97;;;1.63;;
21270;SDS011;10795;50.796;3.860;2022-11-06T11:53:57;7.03;;;1.65;;
21270;SDS011;10795;50.796;3.860;2022-11-06T11:56:30;5.45;;;1.80;;
21270;SDS011;10795;50.796;3.860;2022-11-06T11:58:57;5.18;;;2.10;;
21270;SDS011;10795;50.796;3.860;2022-11-06T12:01:35;3.00;;;1.42;;
21270;SDS011;10795;50.796;3.860;2022-11-06T12:04:15;5.55;;;2.08;;
21270;SDS011;10795;50.796;3.860;2022-11-06T12:09:20;6.43;;;1.98;;
21270;SDS011;10795;50.796;3.860;2022-11-06T12:11:47;4.93;;;1.90;;
21270;SDS011;10795;50.796;3.860;2022-11-06T12:16:52;5.13;;;1.75;;
21270;SDS011;10795;50.796;3.860;2022-11-06T12:19:22;8.80;;;2.00;;
21270;SDS011;10795;50.796;3.860;2022-11-06T12:21:53;7.25;;;2.58;;
21270;SDS011;10795;50.796;3.860;2022-11-06T12:24:22;9.82;;;2.40;;
21270;SDS011;10795;50.796;3.860;2022-11-06T12:26:56;8.75;;;2.50;;
21270;SDS011;10795;50.796;3.860;2022-11-06T12:29:37;6.78;;;2.33;;
21270;SDS011;10795;50.796;3.860;2022-11-06T12:37:43;9.02;;;2.22;;
21270;SDS011;10795;50.796;3.860;2022-11-06T12:40:45;6.97;;;1.83;;
21270;SDS011;10795;50.796;3.860;2022-11-06T12:48:42;6.82;;;1.58;;
21270;SDS011;10795;50.796;3.860;2022-11-06T13:02:26;6.28;;;1.60;;
21270;SDS011;10795;50.796;3.860;2022-11-06T13:10:39;8.95;;;2.22;;
21270;SDS011;10795;50.796;3.860;2022-11-06T13:13:15;4.30;;;1.90;;
21270;SDS011;10795;50.796;3.860;2022-11-06T13:18:44;8.23;;;2.05;;
21270;SDS011;10795;50.796;3.860;2022-11-06T13:23:58;6.72;;;1.95;;
21270;SDS011;10795;50.796;3.860;2022-11-06T13:29:10;4.90;;;1.75;;
21270;SDS011;10795;50.796;3.860;2022-11-06T13:31:43;6.55;;;1.65;;
21270;SDS011;10795;50.796;3.860;2022-11-06T13:34:36;5.88;;;1.35;;
21270;SDS011;10795;50.796;3.860;2022-11-06T13:37:02;5.53;;;1.67;;
21270;SDS011;10795;50.796;3.860;2022-11-06T13:39:37;7.22;;;2.22;;
21270;SDS011;10795;50.796;3.860;2022-11-06T13:42:18;8.32;;;2.05;;
21270;SDS011;10795;50.796;3.860;2022-11-06T13:44:44;6.00;;;1.73;;
21270;SDS011;10795;50.796;3.860;2022-11-06T13:47:33;3.13;;;1.52;;
21270;SDS011;10795;50.796;3.860;2022-11-06T13:50:24;4.18;;;1.70;;
21270;SDS011;10795;50.796;3.860;2022-11-06T13:52:52;5.43;;;1.90;;
21270;SDS011;10795;50.796;3.860;2022-11-06T13:55:51;2.67;;;1.38;;
21270;SDS011;10795;50.796;3.860;2022-11-06T13:58:25;5.50;;;2.00;;
21270;SDS011;10795;50.796;3.860;2022-11-06T14:07:05;6.43;;;2.50;;
21270;SDS011;10795;50.796;3.860;2022-11-06T14:09:34;5.40;;;2.55;;
21270;SDS011;10795;50.796;3.860;2022-11-06T14:12:06;6.75;;;2.60;;
21270;SDS011;10795;50.796;3.860;2022-11-06T14:14:33;4.22;;;2.03;;
21270;SDS011;10795;50.796;3.860;2022-11-06T14:17:09;4.00;;;2.00;;
21270;SDS011;10795;50.796;3.860;2022-11-06T14:19:38;4.50;;;2.00;;
21270;SDS011;10795;50.796;3.860;2022-11-06T14:24:34;5.72;;;2.60;;
21270;SDS011;10795;50.796;3.860;2022-11-06T14:27:04;7.07;;;2.20;;
21270;SDS011;10795;50.796;3.860;2022-11-06T14:32:04;7.03;;;2.70;;
21270;SDS011;10795;50.796;3.860;2022-11-06T14:34:35;6.75;;;1.80;;
21270;SDS011;10795;50.796;3.860;2022-11-06T14:42:31;3.58;;;1.75;;
21270;SDS011;10795;50.796;3.860;2022-11-06T14:45:07;5.15;;;2.50;;
21270;SDS011;10795;50.796;3.860;2022-11-06T14:50:23;2.72;;;2.03;;
21270;SDS011;10795;50.796;3.860;2022-11-06T14:53:18;3.45;;;2.00;;
21270;SDS011;10795;50.796;3.860;2022-11-06T14:55:56;5.40;;;2.00;;
21270;SDS011;10795;50.796;3.860;2022-11-06T14:58:24;5.13;;;2.33;;
21270;SDS011;10795;50.796;3.860;2022-11-06T15:01:11;8.02;;;2.83;;
21270;SDS011;10795;50.796;3.860;2022-11-06T15:16:34;4.18;;;2.08;;
21270;SDS011;10795;50.796;3.860;2022-11-06T15:19:06;7.18;;;2.70;;
21270;SDS011;10795;50.796;3.860;2022-11-06T15:21:47;9.80;;;3.22;;
21270;SDS011;10795;50.796;3.860;2022-11-06T15:24:18;3.83;;;2.75;;
21270;SDS011;10795;50.796;3.860;2022-11-06T15:26:51;7.65;;;2.75;;
21270;SDS011;10795;50.796;3.860;2022-11-06T15:31:51;3.90;;;1.98;;
21270;SDS011;10795;50.796;3.860;2022-11-06T15:34:22;4.72;;;2.42;;
21270;SDS011;10795;50.796;3.860;2022-11-06T15:37:16;5.68;;;3.05;;
21270;SDS011;10795;50.796;3.860;2022-11-06T15:39:51;5.00;;;2.88;;
21270;SDS011;10795;50.796;3.860;2022-11-06T15:42:18;5.30;;;2.70;;
21270;SDS011;10795;50.796;3.860;2022-11-06T15:44:47;6.40;;;2.88;;
21270;SDS011;10795;50.796;3.860;2022-11-06T15:47:20;4.65;;;2.72;;
21270;SDS011;10795;50.796;3.860;2022-11-06T15:49:48;8.18;;;3.30;;
21270;SDS011;10795;50.796;3.860;2022-11-06T15:52:30;4.72;;;2.70;;
21270;SDS011;10795;50.796;3.860;2022-11-06T15:54:55;7.68;;;2.10;;
21270;SDS011;10795;50.796;3.860;2022-11-06T15:57:22;5.68;;;2.35;;
21270;SDS011;10795;50.796;3.860;2022-11-06T15:59:52;6.27;;;2.37;;
21270;SDS011;10795;50.796;3.860;2022-11-06T16:02:59;4.35;;;2.28;;
21270;SDS011;10795;50.796;3.860;2022-11-06T16:05:27;6.70;;;2.72;;
21270;SDS011;10795;50.796;3.860;2022-11-06T16:07:55;4.70;;;1.88;;
21270;SDS011;10795;50.796;3.860;2022-11-06T16:10:21;3.92;;;2.00;;
21270;SDS011;10795;50.796;3.860;2022-11-06T16:12:49;4.35;;;2.35;;
21270;SDS011;10795;50.796;3.860;2022-11-06T16:18:14;3.92;;;2.20;;
21270;SDS011;10795;50.796;3.860;2022-11-06T16:20:51;5.13;;;1.80;;
21270;SDS011;10795;50.796;3.860;2022-11-06T16:23:30;4.13;;;2.10;;
21270;SDS011;10795;50.796;3.860;2022-11-06T16:26:22;3.08;;;1.80;;
21270;SDS011;10795;50.796;3.860;2022-11-06T16:29:00;4.55;;;2.20;;
21270;SDS011;10795;50.796;3.860;2022-11-06T16:31:34;2.35;;;1.92;;
21270;SDS011;10795;50.796;3.860;2022-11-06T16:34:05;3.38;;;1.60;;
21270;SDS011;10795;50.796;3.860;2022-11-06T16:36:57;4.35;;;2.00;;
21270;SDS011;10795;50.796;3.860;2022-11-06T16:44:42;4.32;;;2.42;;
21270;SDS011;10795;50.796;3.860;2022-11-06T16:49:35;6.00;;;1.80;;
21270;SDS011;10795;50.796;3.860;2022-11-06T16:52:25;3.25;;;2.00;;
21270;SDS011;10795;50.796;3.860;2022-11-06T16:54:55;5.63;;;2.67;;
21270;SDS011;10795;50.796;3.860;2022-11-06T17:02:48;5.97;;;3.22;;
21270;SDS011;10795;50.796;3.860;2022-11-06T17:05:20;11.25;;;4.30;;
21270;SDS011;10795;50.796;3.860;2022-11-06T17:07:48;6.95;;;3.00;;
21270;SDS011;10795;50.796;3.860;2022-11-06T17:10:42;6.70;;;3.40;;
21270;SDS011;10795;50.796;3.860;2022-11-06T17:13:13;5.25;;;2.50;;
21270;SDS011;10795;50.796;3.860;2022-11-06T17:15:41;5.57;;;2.60;;
21270;SDS011;10795;50.796;3.860;2022-11-06T17:21:06;7.55;;;3.00;;
21270;SDS011;10795;50.796;3.860;2022-11-06T17:23:37;3.55;;;3.15;;
21270;SDS011;10795;50.796;3.860;2022-11-06T17:26:14;5.00;;;3.33;;
21270;SDS011;10795;50.796;3.860;2022-11-06T17:28:47;6.78;;;3.47;;
21270;SDS011;10795;50.796;3.860;2022-11-06T17:31:13;6.38;;;3.40;;
21270;SDS011;10795;50.796;3.860;2022-11-06T17:33:40;13.57;;;7.00;;
21270;SDS011;10795;50.796;3.860;2022-11-06T17:36:10;8.57;;;4.30;;
21270;SDS011;10795;50.796;3.860;2022-11-06T17:38:49;6.30;;;3.67;;
21270;SDS011;10795;50.796;3.860;2022-11-06T17:41:15;8.68;;;3.85;;
21270;SDS011;10795;50.796;3.860;2022-11-06T17:46:30;11.70;;;6.60;;
21270;SDS011;10795;50.796;3.860;2022-11-06T17:48:57;12.18;;;5.55;;
21270;SDS011;10795;50.796;3.860;2022-11-06T17:51:24;8.63;;;5.43;;
21270;SDS011;10795;50.796;3.860;2022-11-06T17:54:09;13.05;;;8.35;;
21270;SDS011;10795;50.796;3.860;2022-11-06T17:56:35;10.52;;;7.45;;
21270;SDS011;10795;50.796;3.860;2022-11-06T17:59:01;13.18;;;7.97;;
21270;SDS011;10795;50.796;3.860;2022-11-06T18:01:27;10.98;;;5.72;;
21270;SDS011;10795;50.796;3.860;2022-11-06T18:03:53;11.73;;;6.07;;